Time;durP1;ratioP1;P1;durP2;ratioP2;P2;SDS_P1;SDS_P2;PMS_P1;PMS_P2;Temp;Humidity;BMP_temperature;BMP_pressure;BME280_temperature;BME280_humidity;BME280_pressure;Samples;Min_cycle;Max_cycle;Signal;HPM_P1;HPM_P2
2023/01/20 00:01:34;;;;;;;9.07;1.83;;;20.70;78.40;;;;;;5053103;28;20682;-71
2023/01/20 00:04:01;;;;;;;7.27;1.87;;;20.80;75.90;;;;;;5052859;28;20195;-71
2023/01/20 00:06:28;;;;;;;7.33;1.60;;;21.00;75.80;;;;;;5057439;28;20183;-70
2023/01/20 00:08:59;;;;;;;5.67;1.73;;;20.80;74.60;;;;;;5053396;28;20176;-70
2023/01/20 00:11:27;;;;;;;7.73;1.60;;;20.90;75.00;;;;;;5053408;28;20186;-70
2023/01/20 00:13:56;;;;;;;10.07;2.23;;;20.80;74.10;;;;;;5053504;28;20309;-68
2023/01/20 00:16:24;;;;;;;11.23;1.83;;;21.10;73.70;;;;;;5053410;28;20172;-69
2023/01/20 00:18:52;;;;;;;10.33;1.80;;;21.30;72.40;;;;;;5053762;28;20180;-70
2023/01/20 00:21:20;;;;;;;10.00;1.60;;;21.30;70.50;;;;;;5053268;28;20208;-70
2023/01/20 00:23:47;;;;;;;7.13;1.77;;;21.20;68.70;;;;;;5053274;28;20233;-70
2023/01/20 00:26:19;;;;;;;5.90;1.80;;;20.90;70.00;;;;;;5053595;28;20176;-71
2023/01/20 00:28:48;;;;;;;7.57;1.80;;;20.70;71.20;;;;;;5050552;28;20643;-71
2023/01/20 00:31:18;;;;;;;8.77;1.70;;;20.60;71.40;;;;;;5052957;28;20179;-73
2023/01/20 00:33:47;;;;;;;10.60;1.90;;;20.70;70.50;;;;;;5052362;28;20512;-69
2023/01/20 00:36:16;;;;;;;9.30;1.60;;;20.90;70.80;;;;;;5053176;28;20179;-68
2023/01/20 00:38:43;;;;;;;6.50;1.63;;;21.00;68.50;;;;;;5051867;28;20302;-68
2023/01/20 00:41:11;;;;;;;3.70;1.37;;;21.30;67.70;;;;;;5052104;28;20191;-67
2023/01/20 00:43:39;;;;;;;7.83;1.70;;;21.50;67.70;;;;;;5052264;28;20180;-68
2023/01/20 00:46:07;;;;;;;7.73;1.73;;;21.60;66.30;;;;;;5053130;28;20180;-70
2023/01/20 00:48:35;;;;;;;6.40;1.90;;;21.80;65.70;;;;;;5051885;28;20297;-67
2023/01/20 00:51:03;;;;;;;8.70;2.33;;;21.90;68.10;;;;;;5052839;28;20234;-69
2023/01/20 00:53:30;;;;;;;11.27;2.20;;;22.20;68.30;;;;;;5052075;28;20180;-69
2023/01/20 00:55:58;;;;;;;10.67;2.07;;;22.20;68.10;;;;;;5049632;28;20635;-70
2023/01/20 00:58:25;;;;;;;7.33;1.80;;;22.20;67.30;;;;;;5053813;28;20626;-69
2023/01/20 01:00:54;;;;;;;10.50;1.60;;;22.00;66.00;;;;;;5051583;28;20176;-71
2023/01/20 01:03:21;;;;;;;7.07;1.83;;;21.80;63.80;;;;;;5051246;28;20523;-73
2023/01/20 01:05:49;;;;;;;10.67;1.80;;;21.80;65.00;;;;;;5047960;28;20180;-71
2023/01/20 01:08:16;;;;;;;6.17;2.07;;;21.60;67.00;;;;;;5047403;28;20180;-69
2023/01/20 01:10:43;;;;;;;8.47;1.90;;;21.40;68.80;;;;;;5050445;28;20183;-70
2023/01/20 01:13:11;;;;;;;7.40;1.67;;;21.30;69.30;;;;;;5055710;28;20188;-72
2023/01/20 01:15:39;;;;;;;16.97;2.57;;;21.00;70.70;;;;;;5052657;28;20234;-70
2023/01/20 01:18:06;;;;;;;6.53;1.70;;;20.90;71.80;;;;;;5064220;28;20188;-69
2023/01/20 01:20:33;;;;;;;5.90;1.70;;;20.90;71.90;;;;;;5057126;28;20190;-68
2023/01/20 01:23:02;;;;;;;9.77;1.97;;;21.10;71.10;;;;;;5053657;28;20202;-70
2023/01/20 01:25:29;;;;;;;8.43;2.00;;;21.10;69.80;;;;;;5052330;28;20275;-73
2023/01/20 01:27:57;;;;;;;7.20;1.97;;;21.20;69.50;;;;;;5057119;28;20207;-75
2023/01/20 01:30:24;;;;;;;10.60;2.20;;;21.40;67.80;;;;;;5055700;28;20237;-71
2023/01/20 01:32:51;;;;;;;8.73;2.17;;;21.70;68.70;;;;;;5051538;28;20642;-72
2023/01/20 01:35:18;;;;;;;7.73;2.07;;;21.80;66.70;;;;;;5050003;28;20164;-72
2023/01/20 01:37:46;;;;;;;10.77;2.20;;;22.00;66.60;;;;;;5047944;28;20657;-68
2023/01/20 01:40:13;;;;;;;11.40;1.67;;;22.00;66.00;;;;;;5050704;28;20183;-69
2023/01/20 01:42:41;;;;;;;9.83;2.23;;;21.90;63.30;;;;;;5051686;28;20231;-70
2023/01/20 01:45:11;;;;;;;13.43;2.60;;;21.80;63.00;;;;;;5052691;28;20188;-69
2023/01/20 01:47:53;;;;;;;10.20;2.00;;;21.80;63.50;;;;;;5051651;28;20623;-68
2023/01/20 01:50:29;;;;;;;9.47;2.00;;;21.80;63.10;;;;;;5052505;28;20179;-68
2023/01/20 01:52:57;;;;;;;9.17;2.47;;;21.80;63.40;;;;;;5052579;28;20232;-68
2023/01/20 01:55:29;;;;;;;7.90;1.80;;;21.70;63.90;;;;;;5051294;28;20184;-69
2023/01/20 01:57:59;;;;;;;11.40;1.80;;;21.70;62.40;;;;;;5052127;28;20164;-69
2023/01/20 02:00:26;;;;;;;11.53;1.90;;;21.70;62.50;;;;;;5052299;28;20263;-67
2023/01/20 02:02:55;;;;;;;7.10;1.50;;;21.60;64.10;;;;;;5052097;28;20226;-68
2023/01/20 02:05:25;;;;;;;9.33;1.97;;;21.50;64.50;;;;;;5052191;28;20176;-67
2023/01/20 02:07:52;;;;;;;10.63;2.37;;;21.30;65.70;;;;;;5052417;28;20187;-70
2023/01/20 02:10:20;;;;;;;14.20;5.00;;;21.40;65.70;;;;;;5050908;28;21698;-69
2023/01/20 02:12:50;;;;;;;6.13;2.30;;;21.20;67.30;;;;;;5052128;28;20179;-70
2023/01/20 02:15:24;;;;;;;14.53;4.63;;;21.10;68.00;;;;;;5052035;28;20581;-69
2023/01/20 02:18:09;;;;;;;14.13;5.80;;;21.10;68.30;;;;;;5051831;28;20267;-69
2023/01/20 02:20:55;;;;;;;9.13;1.80;;;21.20;69.10;;;;;;5052258;28;20172;-73
2023/01/20 02:23:42;;;;;;;10.13;2.10;;;21.10;68.70;;;;;;5051575;28;20210;-70
2023/01/20 02:26:37;;;;;;;10.30;2.20;;;21.20;67.90;;;;;;5051968;28;20186;-73
2023/01/20 02:29:39;;;;;;;6.83;1.43;;;21.20;68.20;;;;;;5052079;28;20184;-68
2023/01/20 02:32:06;;;;;;;9.37;2.00;;;21.20;67.30;;;;;;5030379;28;20195;-73
2023/01/20 02:34:39;;;;;;;10.03;2.50;;;21.30;67.40;;;;;;5052158;28;20182;-68
2023/01/20 02:37:14;;;;;;;7.43;1.60;;;21.30;66.10;;;;;;5049668;28;20168;-74
2023/01/20 02:40:15;;;;;;;6.00;1.70;;;21.30;63.90;;;;;;5036558;28;20567;-72
2023/01/20 02:42:52;;;;;;;5.67;1.30;;;21.40;63.30;;;;;;5050153;28;20221;-71
2023/01/20 02:45:37;;;;;;;7.90;2.57;;;21.60;62.00;;;;;;5051836;28;20184;-72
2023/01/20 02:48:16;;;;;;;7.53;2.07;;;21.70;61.30;;;;;;5051831;28;20183;-71
2023/01/20 02:51:25;;;;;;;7.97;1.20;;;21.70;60.60;;;;;;5051978;28;20212;-68
2023/01/20 02:54:03;;;;;;;3.60;1.20;;;21.60;59.60;;;;;;5037924;28;20192;-71
2023/01/20 02:56:34;;;;;;;9.97;7.47;;;21.70;60.10;;;;;;5051630;28;20184;-70
2023/01/20 02:59:14;;;;;;;9.13;4.17;;;21.90;59.50;;;;;;5055455;28;20184;-71
2023/01/20 03:01:54;;;;;;;7.33;1.63;;;22.00;59.10;;;;;;5055549;28;20215;-72
2023/01/20 03:04:27;;;;;;;10.17;1.47;;;22.20;58.50;;;;;;5055613;28;20172;-70
2023/01/20 03:06:56;;;;;;;10.33;1.63;;;22.30;57.20;;;;;;5055755;28;20238;-69
2023/01/20 03:09:30;;;;;;;4.23;1.10;;;22.40;56.40;;;;;;5054919;28;20172;-70
2023/01/20 03:12:06;;;;;;;6.03;1.40;;;22.60;55.90;;;;;;5055119;28;20267;-74
2023/01/20 03:14:33;;;;;;;6.90;1.40;;;22.80;54.30;;;;;;5055494;28;20648;-70
2023/01/20 03:17:02;;;;;;;4.87;1.53;;;22.90;54.10;;;;;;5053753;28;20261;-74
2023/01/20 03:19:30;;;;;;;9.00;1.53;;;23.10;54.40;;;;;;5054841;28;20207;-70
2023/01/20 03:21:58;;;;;;;4.67;1.20;;;23.20;53.90;;;;;;5055042;28;20212;-71
2023/01/20 03:24:28;;;;;;;6.03;1.77;;;23.30;54.80;;;;;;5053632;28;20180;-73
2023/01/20 03:26:57;;;;;;;5.17;1.43;;;23.20;54.90;;;;;;5055299;28;20579;-70
2023/01/20 03:29:24;;;;;;;9.47;1.77;;;23.00;55.50;;;;;;5055041;28;20190;-70
2023/01/20 03:31:57;;;;;;;8.83;1.67;;;23.00;55.80;;;;;;5052702;28;20176;-71
2023/01/20 03:34:27;;;;;;;8.13;1.80;;;22.90;57.00;;;;;;5052670;28;20306;-70
2023/01/20 03:36:55;;;;;;;7.63;1.83;;;22.60;58.20;;;;;;5051748;28;20188;-71
2023/01/20 03:39:24;;;;;;;6.83;1.77;;;22.20;60.90;;;;;;5053396;28;20413;-69
2023/01/20 03:42:23;;;;;;;13.70;2.90;;;21.80;62.20;;;;;;5052648;28;20307;-73
2023/01/20 03:45:31;;;;;;;8.63;2.17;;;21.40;64.70;;;;;;5054123;28;20262;-70
2023/01/20 03:48:33;;;;;;;12.77;2.00;;;21.00;68.60;;;;;;5049918;28;20191;-72
2023/01/20 03:51:25;;;;;;;11.47;1.90;;;21.00;69.70;;;;;;5036255;28;20253;-72
2023/01/20 03:53:59;;;;;;;9.27;2.07;;;20.80;72.20;;;;;;5052528;28;20215;-72
2023/01/20 03:56:51;;;;;;;12.77;2.40;;;20.90;73.70;;;;;;5030513;28;20662;-71
2023/01/20 03:59:21;;;;;;;12.47;2.33;;;20.90;73.90;;;;;;5054206;28;20270;-72
2023/01/20 04:01:49;;;;;;;9.93;1.90;;;20.80;73.90;;;;;;5054411;28;20211;-72
2023/01/20 04:04:19;;;;;;;11.80;2.23;;;21.00;73.70;;;;;;5054507;28;20643;-68
2023/01/20 04:06:49;;;;;;;5.17;1.50;;;21.20;73.70;;;;;;5051558;28;20195;-72
2023/01/20 04:09:31;;;;;;;23.67;3.90;;;21.30;71.20;;;;;;5051204;28;20180;-69
2023/01/20 04:11:59;;;;;;;8.53;2.00;;;21.70;69.20;;;;;;5052498;28;20222;-69
2023/01/20 04:14:27;;;;;;;10.87;2.03;;;21.90;68.00;;;;;;5053084;28;20222;-69
2023/01/20 04:16:57;;;;;;;10.80;2.33;;;21.90;66.90;;;;;;5053195;28;20199;-69
2023/01/20 04:19:26;;;;;;;7.80;1.90;;;22.10;68.00;;;;;;5053080;28;20716;-69
2023/01/20 04:22:05;;;;;;;9.50;1.97;;;22.00;66.80;;;;;;5053414;28;20211;-68
2023/01/20 04:24:54;;;;;;;12.60;2.27;;;21.90;66.40;;;;;;5051792;28;20924;-68
2023/01/20 04:27:21;;;;;;;9.70;2.10;;;21.80;67.30;;;;;;5050078;28;20179;-67
2023/01/20 04:29:48;;;;;;;11.83;1.87;;;21.60;66.30;;;;;;5051448;28;20172;-69
2023/01/20 04:32:16;;;;;;;11.73;2.17;;;21.50;65.30;;;;;;5050172;28;20226;-68
2023/01/20 04:34:43;;;;;;;12.20;2.00;;;21.50;65.30;;;;;;5050365;28;20180;-67
2023/01/20 04:37:10;;;;;;;11.87;1.60;;;21.50;65.80;;;;;;5051309;28;20590;-69
2023/01/20 04:39:38;;;;;;;4.90;1.30;;;21.40;65.50;;;;;;5045029;28;20215;-68
2023/01/20 04:42:05;;;;;;;10.30;1.80;;;21.40;65.90;;;;;;5031632;28;20219;-68
2023/01/20 04:44:32;;;;;;;11.03;1.70;;;21.40;65.90;;;;;;5052051;28;20587;-68
2023/01/20 04:47:00;;;;;;;7.20;1.67;;;21.70;65.80;;;;;;5050738;28;20259;-70
2023/01/20 04:49:27;;;;;;;9.60;1.93;;;21.80;64.80;;;;;;5051117;28;20176;-70
2023/01/20 04:51:55;;;;;;;10.07;1.60;;;22.00;64.50;;;;;;5051235;28;20705;-69
2023/01/20 04:54:22;;;;;;;7.90;1.60;;;22.30;63.60;;;;;;5047004;28;20206;-70
2023/01/20 04:56:50;;;;;;;12.37;1.83;;;22.70;62.80;;;;;;5051227;28;20188;-69
2023/01/20 04:59:17;;;;;;;8.40;1.53;;;22.80;61.90;;;;;;5047601;28;20274;-70
2023/01/20 05:01:44;;;;;;;7.13;1.77;;;22.90;58.90;;;;;;5052616;28;20222;-71
2023/01/20 05:04:12;;;;;;;6.37;1.70;;;23.00;59.30;;;;;;5052569;28;20223;-71
2023/01/20 05:06:41;;;;;;;10.23;1.97;;;22.90;60.10;;;;;;5052379;28;20258;-69
2023/01/20 05:09:15;;;;;;;11.03;1.90;;;22.90;58.10;;;;;;5052522;28;20290;-69
2023/01/20 05:11:43;;;;;;;3.30;1.07;;;22.80;58.20;;;;;;5052683;28;20578;-70
2023/01/20 05:14:21;;;;;;;6.27;1.50;;;23.00;56.70;;;;;;5052037;28;20188;-74
2023/01/20 05:16:55;;;;;;;4.63;1.33;;;23.10;56.50;;;;;;5051295;28;20172;-75
2023/01/20 05:19:29;;;;;;;11.90;1.80;;;23.20;56.70;;;;;;5052073;28;20248;-72
2023/01/20 05:21:56;;;;;;;11.20;3.93;;;23.10;57.60;;;;;;5083541;28;20207;-75
2023/01/20 05:24:24;;;;;;;14.87;2.60;;;22.90;58.30;;;;;;5052517;28;20233;-70
2023/01/20 05:26:51;;;;;;;4.17;1.40;;;22.90;58.80;;;;;;5050661;28;20233;-68
2023/01/20 05:29:18;;;;;;;7.23;1.70;;;22.80;59.00;;;;;;5050301;28;20192;-70
2023/01/20 05:32:00;;;;;;;7.10;1.73;;;22.60;57.50;;;;;;5049596;28;20225;-76
2023/01/20 05:34:32;;;;;;;9.17;1.37;;;22.40;57.70;;;;;;5050943;28;20188;-75
2023/01/20 05:37:05;;;;;;;5.53;1.37;;;22.30;57.90;;;;;;5043391;28;20184;-75
2023/01/20 05:39:38;;;;;;;10.77;1.93;;;22.30;57.90;;;;;;5050831;28;20184;-77
2023/01/20 05:42:05;;;;;;;8.73;1.80;;;22.30;57.90;;;;;;5046360;28;20220;-69
2023/01/20 05:44:34;;;;;;;10.03;1.87;;;22.20;57.50;;;;;;5046996;28;20210;-74
2023/01/20 05:47:05;;;;;;;7.90;1.27;;;22.10;57.90;;;;;;5047872;28;20180;-76
2023/01/20 05:49:33;;;;;;;8.90;1.40;;;22.10;57.40;;;;;;5050654;28;20261;-76
2023/01/20 05:52:00;;;;;;;7.83;1.50;;;21.90;57.80;;;;;;5051344;28;20220;-74
2023/01/20 05:54:31;;;;;;;7.07;1.87;;;21.90;58.70;;;;;;5049339;28;20329;-75
2023/01/20 05:56:58;;;;;;;6.47;1.77;;;21.80;58.60;;;;;;5048217;28;20292;-68
2023/01/20 05:59:32;;;;;;;9.23;2.13;;;21.80;58.40;;;;;;5050195;28;20278;-75
2023/01/20 06:02:11;;;;;;;9.80;1.80;;;21.80;58.40;;;;;;5048222;28;20211;-73
2023/01/20 06:04:39;;;;;;;9.87;1.77;;;21.70;58.40;;;;;;5050702;28;20256;-74
2023/01/20 06:07:07;;;;;;;7.20;1.80;;;21.70;58.20;;;;;;5051333;28;20175;-74
2023/01/20 06:09:34;;;;;;;12.67;2.07;;;21.60;58.30;;;;;;5050644;28;20184;-72
2023/01/20 06:12:02;;;;;;;8.97;1.80;;;21.60;58.50;;;;;;5051500;28;20176;-69
2023/01/20 06:14:29;;;;;;;6.03;1.53;;;21.60;58.90;;;;;;5050681;28;20274;-72
2023/01/20 06:16:56;;;;;;;8.10;1.80;;;21.60;60.90;;;;;;5047514;28;20562;-67
2023/01/20 06:19:24;;;;;;;6.10;1.77;;;21.60;63.30;;;;;;5050837;28;20195;-69
2023/01/20 06:21:52;;;;;;;13.33;2.23;;;21.60;65.30;;;;;;5051077;28;20219;-68
2023/01/20 06:24:19;;;;;;;14.73;1.83;;;21.50;67.30;;;;;;5050101;28;20208;-69
2023/01/20 06:26:49;;;;;;;13.77;2.47;;;21.50;68.50;;;;;;5052891;28;20183;-70
2023/01/20 06:29:16;;;;;;;16.60;2.60;;;21.50;69.60;;;;;;5054287;28;20763;-71
2023/01/20 06:31:44;;;;;;;12.30;1.93;;;21.70;69.50;;;;;;5054916;28;20283;-70
2023/01/20 06:34:12;;;;;;;9.97;2.23;;;21.60;68.70;;;;;;5052812;28;20535;-74
2023/01/20 06:36:40;;;;;;;8.03;1.93;;;21.70;68.30;;;;;;5053342;28;20179;-70
2023/01/20 06:39:07;;;;;;;9.40;1.90;;;21.80;68.30;;;;;;5051811;28;20188;-70
2023/01/20 06:41:34;;;;;;;7.93;1.93;;;21.80;67.20;;;;;;5055625;28;20592;-70
2023/01/20 06:44:02;;;;;;;8.43;1.90;;;21.60;61.80;;;;;;5055626;28;20184;-71
2023/01/20 06:46:29;;;;;;;6.10;1.60;;;21.60;60.90;;;;;;5058134;28;20176;-73
2023/01/20 06:48:59;;;;;;;7.23;1.70;;;21.60;59.80;;;;;;5055080;28;20188;-69
2023/01/20 06:51:28;;;;;;;7.10;1.90;;;21.60;59.40;;;;;;5054121;28;20231;-72
2023/01/20 06:53:56;;;;;;;11.27;1.70;;;21.70;59.40;;;;;;5054652;28;20206;-67
2023/01/20 06:56:24;;;;;;;9.03;1.67;;;21.70;60.20;;;;;;5052942;28;20188;-67
2023/01/20 06:58:51;;;;;;;12.67;2.80;;;21.50;62.20;;;;;;5054851;28;20184;-69
2023/01/20 07:01:29;;;;;;;9.00;1.60;;;21.50;63.00;;;;;;5054934;28;20183;-68
2023/01/20 07:03:56;;;;;;;7.87;2.10;;;21.30;63.30;;;;;;5054488;28;20191;-68
2023/01/20 07:06:31;;;;;;;7.03;1.83;;;21.30;63.50;;;;;;5053773;28;20729;-69
2023/01/20 07:09:00;;;;;;;10.83;2.00;;;21.30;64.40;;;;;;5054699;28;20250;-70
2023/01/20 07:11:30;;;;;;;8.73;1.63;;;21.20;64.10;;;;;;5047623;28;20267;-70
2023/01/20 07:13:58;;;;;;;8.17;1.43;;;21.20;63.50;;;;;;5050707;28;20730;-70
2023/01/20 07:16:25;;;;;;;7.93;1.53;;;21.10;63.80;;;;;;5053874;28;20207;-69
2023/01/20 07:18:53;;;;;;;6.47;1.80;;;21.20;64.30;;;;;;5054536;28;20206;-67
2023/01/20 07:21:21;;;;;;;8.07;1.43;;;21.10;64.70;;;;;;5053193;28;20231;-68
2023/01/20 07:23:50;;;;;;;7.97;1.80;;;21.10;65.30;;;;;;5057084;28;20188;-70
2023/01/20 07:26:20;;;;;;;12.10;2.20;;;21.10;65.80;;;;;;5052286;28;20176;-73
2023/01/20 07:28:48;;;;;;;7.13;1.73;;;21.00;65.90;;;;;;5051842;28;20266;-69
2023/01/20 07:31:21;;;;;;;6.43;1.70;;;21.00;66.00;;;;;;5054008;28;20184;-69
2023/01/20 07:33:48;;;;;;;11.20;1.87;;;21.00;66.30;;;;;;5054869;28;20232;-71
2023/01/20 07:36:17;;;;;;;9.67;1.93;;;21.00;66.40;;;;;;5054400;28;20669;-68
2023/01/20 07:38:49;;;;;;;7.80;1.80;;;21.00;66.60;;;;;;5055742;28;20183;-69
2023/01/20 07:41:18;;;;;;;9.07;2.00;;;21.00;67.20;;;;;;5054767;28;20226;-71
2023/01/20 07:43:47;;;;;;;7.23;1.63;;;21.10;68.40;;;;;;5053886;28;20196;-70
2023/01/20 07:46:15;;;;;;;8.07;2.13;;;21.00;69.70;;;;;;5057003;28;20180;-69
2023/01/20 07:48:42;;;;;;;10.10;2.47;;;21.00;70.30;;;;;;5049224;28;20203;-69
2023/01/20 07:51:11;;;;;;;10.40;2.07;;;20.90;70.00;;;;;;5051487;28;20219;-73
2023/01/20 07:53:45;;;;;;;5.33;1.37;;;20.90;70.10;;;;;;5053466;28;20218;-69
2023/01/20 07:56:24;;;;;;;9.30;1.87;;;20.90;70.40;;;;;;5055239;28;20184;-69
2023/01/20 07:58:52;;;;;;;7.20;2.10;;;20.80;69.90;;;;;;5054348;28;20234;-70
2023/01/20 08:01:22;;;;;;;9.73;2.23;;;20.80;70.40;;;;;;5050469;28;20223;-69
2023/01/20 08:03:50;;;;;;;11.20;1.80;;;20.80;70.70;;;;;;5048077;28;20255;-69
2023/01/20 08:06:21;;;;;;;8.83;1.77;;;20.80;70.60;;;;;;5056062;28;20232;-68
2023/01/20 08:08:49;;;;;;;7.20;1.77;;;20.80;70.10;;;;;;5052781;28;20646;-69
2023/01/20 08:11:18;;;;;;;10.40;1.70;;;20.80;70.20;;;;;;5053739;28;20176;-70
2023/01/20 08:13:46;;;;;;;6.43;1.93;;;20.90;70.40;;;;;;5052722;28;20180;-69
2023/01/20 08:16:15;;;;;;;7.43;2.00;;;21.00;70.20;;;;;;5053427;28;20183;-70
2023/01/20 08:18:42;;;;;;;8.87;1.90;;;20.90;69.90;;;;;;5050477;28;20219;-71
2023/01/20 08:21:22;;;;;;;7.57;1.70;;;20.80;68.50;;;;;;5049818;28;20186;-70
2023/01/20 08:23:50;;;;;;;8.57;2.00;;;20.80;68.30;;;;;;5049134;28;20190;-70
2023/01/20 08:26:18;;;;;;;9.30;1.93;;;20.90;68.20;;;;;;5051384;28;20268;-72
2023/01/20 08:28:46;;;;;;;6.33;2.13;;;20.80;67.70;;;;;;5052684;28;20176;-73
2023/01/20 08:31:17;;;;;;;7.07;1.90;;;20.80;68.60;;;;;;5051973;28;20326;-73
2023/01/20 08:33:45;;;;;;;9.03;1.77;;;20.80;69.40;;;;;;5051469;28;20191;-72
2023/01/20 08:36:19;;;;;;;6.67;2.03;;;20.70;69.30;;;;;;5052623;28;20187;-69
2023/01/20 08:38:47;;;;;;;9.40;2.10;;;20.60;69.20;;;;;;5051700;28;20543;-72
2023/01/20 08:41:24;;;;;;;6.20;2.10;;;20.60;69.00;;;;;;5048451;28;20337;-72
2023/01/20 08:43:52;;;;;;;9.43;1.90;;;20.60;68.30;;;;;;5052094;28;20184;-71
2023/01/20 08:46:20;;;;;;;6.27;1.87;;;20.50;67.50;;;;;;5051574;28;20203;-69
2023/01/20 08:48:49;;;;;;;10.60;2.27;;;20.60;67.40;;;;;;5048664;28;20290;-68
2023/01/20 08:51:19;;;;;;;7.07;2.00;;;20.50;67.50;;;;;;5049056;28;20224;-72
2023/01/20 08:53:48;;;;;;;12.57;2.07;;;20.50;67.90;;;;;;5052511;28;20172;-70
2023/01/20 08:56:16;;;;;;;8.53;1.97;;;20.50;68.30;;;;;;5050975;28;20180;-75
2023/01/20 08:58:43;;;;;;;8.50;2.07;;;20.50;68.00;;;;;;5052353;28;20187;-69
2023/01/20 09:01:23;;;;;;;7.50;1.70;;;20.50;67.30;;;;;;5051380;28;20187;-71
2023/01/20 09:03:51;;;;;;;8.80;2.00;;;20.40;67.30;;;;;;5052273;28;20176;-72
2023/01/20 09:06:20;;;;;;;5.93;1.97;;;20.40;67.40;;;;;;5052689;28;20199;-71
2023/01/20 09:08:48;;;;;;;12.97;2.23;;;20.40;68.20;;;;;;5051336;28;20318;-70
2023/01/20 09:11:19;;;;;;;10.60;2.07;;;20.40;69.30;;;;;;5051904;28;20180;-69
2023/01/20 09:13:47;;;;;;;12.40;3.03;;;20.30;69.80;;;;;;5053090;28;20183;-71
2023/01/20 09:16:18;;;;;;;6.63;1.70;;;20.40;69.70;;;;;;5054916;28;20180;-74
2023/01/20 09:18:45;;;;;;;7.63;1.67;;;20.30;69.80;;;;;;5050801;28;20192;-75
2023/01/20 09:21:12;;;;;;;8.80;2.00;;;20.30;69.40;;;;;;5056547;28;20265;-69
2023/01/20 09:23:42;;;;;;;4.37;1.60;;;20.30;68.00;;;;;;5054923;28;20191;-69
2023/01/20 09:26:10;;;;;;;7.13;2.00;;;20.30;68.40;;;;;;5055154;28;20185;-70
2023/01/20 09:28:37;;;;;;;13.17;2.93;;;20.30;68.10;;;;;;5054858;28;20194;-68
2023/01/20 09:31:08;;;;;;;10.87;2.20;;;20.20;68.00;;;;;;5053961;28;20175;-70
2023/01/20 09:33:38;;;;;;;10.97;2.30;;;20.20;67.80;;;;;;5053034;28;20180;-69
2023/01/20 09:36:08;;;;;;;7.77;1.83;;;20.30;67.70;;;;;;5052134;28;20180;-69
2023/01/20 09:44:28;;;;;;;8.37;2.10;;;20.20;67.70;;;;;;5048729;28;20279;-70
2023/01/20 09:47:19;;;;;;;11.23;2.23;;;20.20;68.60;;;;;;5050158;28;20190;-70
2023/01/20 09:55:27;;;;;;;6.90;2.27;;;20.30;69.80;;;;;;5051753;28;20195;-69
2023/01/20 09:58:05;;;;;;;9.40;2.37;;;20.30;70.30;;;;;;5053443;28;20782;-70
2023/01/20 10:00:34;;;;;;;10.73;2.80;;;20.30;70.50;;;;;;5052268;28;20191;-74
2023/01/20 10:03:35;;;;;;;13.07;3.07;;;20.30;70.90;;;;;;5071871;28;20217;-71
2023/01/20 10:06:10;;;;;;;12.40;2.80;;;20.20;71.00;;;;;;5051829;28;20534;-70
2023/01/20 10:08:50;;;;;;;11.10;2.63;;;20.20;71.30;;;;;;5051162;28;20183;-68
2023/01/20 10:11:19;;;;;;;10.10;2.53;;;20.20;71.70;;;;;;5054347;28;20271;-69
2023/01/20 10:14:02;;;;;;;13.00;2.67;;;20.20;71.70;;;;;;5056864;28;20263;-70
2023/01/20 10:16:33;;;;;;;10.70;2.43;;;20.20;71.40;;;;;;5054823;28;20591;-72
2023/01/20 10:19:11;;;;;;;11.43;2.47;;;20.20;71.60;;;;;;5052821;28;20211;-70
2023/01/20 10:22:04;;;;;;;10.57;2.70;;;20.20;71.40;;;;;;5055143;28;20557;-70
2023/01/20 10:24:46;;;;;;;9.63;2.50;;;20.20;71.20;;;;;;5050687;28;20180;-71
2023/01/20 10:27:13;;;;;;;14.07;2.77;;;20.20;70.90;;;;;;5051812;28;20439;-69
2023/01/20 10:29:54;;;;;;;7.30;2.20;;;20.20;70.90;;;;;;5052363;28;20200;-70
2023/01/20 10:32:52;;;;;;;13.10;2.67;;;20.20;71.60;;;;;;5046893;28;20569;-76
2023/01/20 10:35:36;;;;;;;12.23;4.33;;;20.20;72.40;;;;;;5047452;28;20604;-74
2023/01/20 10:38:08;;;;;;;11.57;1.83;;;19.90;74.80;;;;;;5049085;28;20183;-74
2023/01/20 10:40:49;;;;;;;8.17;1.77;;;19.40;77.70;;;;;;5049370;28;20190;-72
2023/01/20 10:43:18;;;;;;;6.93;1.90;;;19.20;79.40;;;;;;5050799;28;20207;-74
2023/01/20 10:46:12;;;;;;;9.23;2.13;;;19.00;81.00;;;;;;5046926;28;20203;-71
2023/01/20 10:49:35;;;;;;;9.67;2.50;;;18.80;81.20;;;;;;5051990;28;20172;-72
2023/01/20 10:52:08;;;;;;;11.60;1.93;;;18.70;82.00;;;;;;5007929;28;20232;-73
2023/01/20 10:55:24;;;;;;;8.43;1.73;;;18.70;82.70;;;;;;5007597;28;20185;-74
2023/01/20 10:58:01;;;;;;;6.87;1.70;;;18.80;83.40;;;;;;5020486;28;20200;-74
2023/01/20 11:00:32;;;;;;;6.00;1.70;;;18.80;83.40;;;;;;5052051;28;20178;-72
2023/01/20 11:03:01;;;;;;;8.97;1.83;;;18.70;84.10;;;;;;5051075;28;20212;-74
2023/01/20 11:05:33;;;;;;;12.30;2.53;;;18.70;84.60;;;;;;5048734;28;20258;-73
2023/01/20 11:08:02;;;;;;;4.40;1.03;;;18.70;84.60;;;;;;5056684;28;20682;-74
2023/01/20 11:10:32;;;;;;;8.50;1.90;;;18.70;84.60;;;;;;5049326;28;20261;-73
2023/01/20 11:13:01;;;;;;;9.87;2.10;;;18.80;85.10;;;;;;5052600;28;20182;-73
2023/01/20 11:15:39;;;;;;;9.53;1.63;;;18.70;85.20;;;;;;5054446;28;20180;-73
2023/01/20 11:18:16;;;;;;;16.53;1.90;;;18.70;85.10;;;;;;5054509;28;20578;-74
2023/01/20 11:21:08;;;;;;;12.80;2.47;;;18.70;85.70;;;;;;5053022;28;20187;-74
2023/01/20 11:24:02;;;;;;;11.13;2.00;;;18.70;85.80;;;;;;5054004;28;20695;-72
2023/01/20 11:26:36;;;;;;;8.77;1.90;;;18.70;85.60;;;;;;5051738;28;20202;-74
2023/01/20 11:29:09;;;;;;;10.10;2.40;;;18.70;85.60;;;;;;5053898;28;20187;-73
2023/01/20 11:31:42;;;;;;;11.67;2.40;;;18.80;86.10;;;;;;5054455;28;20266;-73
2023/01/20 11:34:47;;;;;;;11.33;2.30;;;18.70;85.80;;;;;;5053160;28;20639;-74
2023/01/20 11:37:26;;;;;;;9.17;2.00;;;18.70;85.50;;;;;;5050642;28;20194;-74
2023/01/20 11:39:59;;;;;;;10.37;2.30;;;18.60;85.20;;;;;;5051269;28;20196;-76
2023/01/20 11:42:29;;;;;;;10.37;2.30;;;18.70;85.00;;;;;;5053929;28;20251;-72
2023/01/20 11:45:01;;;;;;;9.83;1.97;;;18.70;85.10;;;;;;5050789;28;20184;-75
2023/01/20 11:47:29;;;;;;;9.93;2.87;;;18.70;85.40;;;;;;5053503;28;20187;-75
2023/01/20 11:50:08;;;;;;;14.77;2.60;;;18.80;85.90;;;;;;5052277;28;20172;-76
2023/01/20 11:52:46;;;;;;;12.80;2.57;;;18.70;86.10;;;;;;5053183;28;20239;-76
2023/01/20 11:55:16;;;;;;;11.60;2.73;;;18.80;85.90;;;;;;5051080;28;20194;-75
2023/01/20 11:57:57;;;;;;;9.60;3.13;;;18.70;86.10;;;;;;5053692;28;20613;-76
2023/01/20 12:00:43;;;;;;;12.63;2.83;;;18.80;86.10;;;;;;5058099;28;20225;-76
2023/01/20 12:03:46;;;;;;;11.70;2.43;;;18.60;84.80;;;;;;5054313;28;20227;-74
2023/01/20 12:06:52;;;;;;;9.30;2.00;;;18.70;83.80;;;;;;5085975;28;20183;-74
2023/01/20 12:09:22;;;;;;;6.77;2.20;;;18.70;83.60;;;;;;5032809;28;20184;-75
2023/01/20 12:12:12;;;;;;;5.27;1.80;;;18.70;83.00;;;;;;5050363;28;20270;-75
2023/01/20 12:14:39;;;;;;;9.30;2.10;;;18.70;83.00;;;;;;5052791;28;20172;-75
2023/01/20 12:17:17;;;;;;;9.07;2.00;;;18.80;83.30;;;;;;5054264;28;20263;-74
2023/01/20 12:20:06;;;;;;;9.73;2.10;;;18.70;83.00;;;;;;5052160;28;20180;-75
2023/01/20 12:22:54;;;;;;;9.60;2.10;;;18.70;82.80;;;;;;5053642;28;20653;-75
2023/01/20 12:25:31;;;;;;;10.87;2.50;;;18.80;83.40;;;;;;5037591;28;20196;-76
2023/01/20 12:28:24;;;;;;;7.87;2.20;;;18.70;84.20;;;;;;5050259;28;20602;-71
2023/01/20 12:31:00;;;;;;;9.23;2.00;;;18.80;84.10;;;;;;5049468;28;20324;-73
2023/01/20 12:33:40;;;;;;;11.07;2.40;;;18.70;84.30;;;;;;5052344;28;20198;-73
2023/01/20 12:36:44;;;;;;;11.07;2.33;;;18.80;84.30;;;;;;5054272;28;20271;-72
2023/01/20 12:39:29;;;;;;;9.70;2.13;;;18.80;84.40;;;;;;5052178;28;20186;-73
2023/01/20 12:42:18;;;;;;;9.73;2.63;;;18.80;84.20;;;;;;5050992;28;20210;-72
2023/01/20 12:44:57;;;;;;;17.40;2.77;;;18.80;84.50;;;;;;5054148;28;20211;-74
2023/01/20 12:47:36;;;;;;;9.27;2.50;;;18.80;84.30;;;;;;5053443;28;20658;-72
2023/01/20 12:50:29;;;;;;;11.23;2.20;;;18.70;84.30;;;;;;5070267;28;20179;-70
2023/01/20 12:53:23;;;;;;;9.73;2.40;;;18.60;84.60;;;;;;5053835;28;20658;-72
2023/01/20 12:56:11;;;;;;;13.47;2.60;;;18.60;84.50;;;;;;5055115;28;20192;-74
2023/01/20 12:59:03;;;;;;;12.87;2.30;;;18.50;84.80;;;;;;5051999;28;20206;-69
2023/01/20 13:01:43;;;;;;;6.90;2.13;;;18.50;84.60;;;;;;5033836;28;20216;-72
2023/01/20 13:04:38;;;;;;;5.27;1.87;;;18.50;84.70;;;;;;5053199;28;20183;-72
2023/01/20 13:07:30;;;;;;;10.40;2.40;;;18.60;85.10;;;;;;5053905;28;20235;-74
2023/01/20 13:10:06;;;;;;;8.90;2.20;;;18.50;84.70;;;;;;5051362;28;20913;-71
2023/01/20 13:12:51;;;;;;;10.10;2.37;;;18.40;84.70;;;;;;5051890;28;20635;-71
2023/01/20 13:15:25;;;;;;;7.23;2.03;;;18.40;84.80;;;;;;5063608;28;20187;-72
2023/01/20 13:18:23;;;;;;;6.27;2.20;;;18.30;85.00;;;;;;5050111;28;20176;-74
2023/01/20 13:20:52;;;;;;;11.17;2.80;;;18.30;84.50;;;;;;5051317;28;20175;-74
2023/01/20 13:23:26;;;;;;;10.23;2.43;;;18.20;85.50;;;;;;5051393;28;20207;-73
2023/01/20 13:25:55;;;;;;;11.27;2.03;;;18.30;85.70;;;;;;5050624;28;20245;-72
2023/01/20 13:28:25;;;;;;;8.53;2.23;;;18.20;85.70;;;;;;5051346;28;20179;-75